createdAt,value
2022-07-30T00:02:38.433Z,102.65
2022-07-30T00:05:25.464Z,98.97
2022-07-30T00:08:12.559Z,102.82
2022-07-30T00:10:59.513Z,97.18
2022-07-30T00:13:46.462Z,102.22
2022-07-30T00:16:33.597Z,103.75
2022-07-30T00:19:20.803Z,99.55
2022-07-30T00:22:09.608Z,100.32
2022-07-30T00:24:56.593Z,96.03
2022-07-30T00:27:44.422Z,99.32
2022-07-30T00:30:31.474Z,101.53
2022-07-30T00:33:18.471Z,98.70
2022-07-30T00:36:05.695Z,98.85
2022-07-30T00:38:52.755Z,99.43
2022-07-30T00:42:03.430Z,98.25
2022-07-30T00:44:50.469Z,95.40
2022-07-30T00:47:38.094Z,98.70
2022-07-30T00:50:25.065Z,97.97
2022-07-30T00:53:12.087Z,96.82
2022-07-30T00:55:59.108Z,96.25
2022-07-30T00:58:46.056Z,97.85
2022-07-30T01:01:33.730Z,99.38
2022-07-30T01:04:21.409Z,99.70
2022-07-30T01:07:08.374Z,98.05
2022-07-30T01:09:55.339Z,95.10
2022-07-30T01:12:43.086Z,97.70
2022-07-30T01:15:30.204Z,99.22
2022-07-30T01:18:18.162Z,95.75
2022-07-30T01:21:09.486Z,99.22
2022-07-30T01:24:03.692Z,94.78
2022-07-30T01:26:51.827Z,97.07
2022-07-30T01:29:43.360Z,100.70
2022-07-30T01:32:31.641Z,99.78
2022-07-30T01:35:21.875Z,95.40
2022-07-30T01:38:11.445Z,97.65
2022-07-30T01:40:59.352Z,101.45
2022-07-30T01:43:47.637Z,96.53
2022-07-30T01:46:35.184Z,97.43
2022-07-30T01:49:24.108Z,95.50
2022-07-30T01:52:12.384Z,93.00
2022-07-30T01:55:02.248Z,95.85
2022-07-30T01:57:50.287Z,95.63
2022-07-30T02:00:40.188Z,94.60
2022-07-30T02:03:27.766Z,93.55
2022-07-30T02:06:21.297Z,95.30
2022-07-30T02:09:11.046Z,97.45
2022-07-30T02:12:18.939Z,97.53
2022-07-30T02:15:17.455Z,97.28
2022-07-30T02:18:16.915Z,98.15
2022-07-30T02:21:07.531Z,99.85
2022-07-30T02:23:56.489Z,97.43
2022-07-30T02:26:46.391Z,96.65
2022-07-30T02:29:35.706Z,94.60
2022-07-30T02:32:24.709Z,98.25
2022-07-30T02:35:20.130Z,97.80
2022-07-30T02:38:09.275Z,94.05
2022-07-30T02:40:59.300Z,96.85
2022-07-30T02:43:48.282Z,95.20
2022-07-30T02:46:37.956Z,96.32
2022-07-30T02:49:27.870Z,94.78
2022-07-30T02:52:16.527Z,94.28
2022-07-30T02:55:05.230Z,93.60
2022-07-30T02:57:54.033Z,92.95
2022-07-30T03:00:42.808Z,93.22
2022-07-30T03:03:30.859Z,94.13
2022-07-30T03:06:20.004Z,93.47
2022-07-30T03:09:07.926Z,96.43
2022-07-30T03:11:56.220Z,93.30
2022-07-30T03:14:43.481Z,95.57
2022-07-30T03:17:38.228Z,91.93
2022-07-30T03:20:29.737Z,95.75
2022-07-30T03:23:19.475Z,95.45
2022-07-30T03:26:08.745Z,96.30
2022-07-30T03:28:57.169Z,95.03
2022-07-30T03:31:45.086Z,96.35
2022-07-30T03:34:35.007Z,96.68
2022-07-30T03:37:22.275Z,95.38
2022-07-30T03:40:09.941Z,93.35
2022-07-30T03:42:57.341Z,95.03
2022-07-30T03:45:45.577Z,96.43
2022-07-30T03:48:34.923Z,96.38
2022-07-30T03:51:22.271Z,95.25
2022-07-30T03:54:13.766Z,94.28
2022-07-30T03:57:03.027Z,98.72
2022-07-30T03:59:51.843Z,95.60
2022-07-30T04:02:46.423Z,95.07
2022-07-30T04:05:41.342Z,97.47
2022-07-30T04:08:29.125Z,93.45
2022-07-30T04:11:16.187Z,96.97
2022-07-30T04:14:03.452Z,95.63
2022-07-30T04:16:59.474Z,94.00
2022-07-30T04:20:01.866Z,96.30
2022-07-30T04:22:50.250Z,93.90
2022-07-30T04:25:37.839Z,94.93
2022-07-30T04:28:27.042Z,93.53
2022-07-30T04:31:14.527Z,94.68
2022-07-30T04:34:04.617Z,95.45
2022-07-30T04:36:51.972Z,94.38
2022-07-30T04:39:38.954Z,93.53
2022-07-30T04:42:28.017Z,95.13
2022-07-30T04:45:15.166Z,95.78
2022-07-30T04:48:02.147Z,96.22
2022-07-30T04:50:51.435Z,94.15
2022-07-30T04:53:40.317Z,96.32
2022-07-30T04:56:30.730Z,97.55
2022-07-30T04:59:18.865Z,98.05
2022-07-30T05:02:08.698Z,96.38
2022-07-30T05:04:57.689Z,101.20
2022-07-30T05:07:47.190Z,99.05
2022-07-30T05:10:34.428Z,98.45
2022-07-30T05:13:22.316Z,102.90
2022-07-30T05:16:09.873Z,100.43
2022-07-30T05:18:56.914Z,104.85
2022-07-30T05:21:44.338Z,103.18
2022-07-30T05:24:31.366Z,104.25
2022-07-30T05:27:20.387Z,106.43
2022-07-30T05:30:08.315Z,109.68
2022-07-30T05:32:56.049Z,119.38
2022-07-30T05:35:43.261Z,124.65
2022-07-30T05:38:30.216Z,126.90
2022-07-30T05:41:24.557Z,135.13
2022-07-30T05:44:22.263Z,133.88
2022-07-30T05:47:10.997Z,129.80
2022-07-30T05:50:01.586Z,127.60
2022-07-30T05:52:51.659Z,130.03
2022-07-30T05:55:38.709Z,130.50
2022-07-30T05:58:25.661Z,130.25
2022-07-30T06:01:12.860Z,126.15
2022-07-30T06:03:59.934Z,123.97
2022-07-30T06:06:47.125Z,133.07
2022-07-30T06:09:37.104Z,137.15
2022-07-30T06:12:24.355Z,140.18
2022-07-30T06:15:11.619Z,141.40
2022-07-30T06:18:01.556Z,141.40
2022-07-30T06:20:51.825Z,141.90
2022-07-30T06:23:39.237Z,142.20
2022-07-30T06:26:26.257Z,142.48
2022-07-30T06:29:13.538Z,145.93
2022-07-30T06:32:00.730Z,144.57
2022-07-30T06:34:47.713Z,150.52
2022-07-30T06:38:04.900Z,144.90
2022-07-30T06:40:41.861Z,148.48
2022-07-30T06:43:28.931Z,152.40
2022-07-30T06:46:16.028Z,158.60
2022-07-30T06:49:03.857Z,160.98
2022-07-30T06:51:51.438Z,152.05
2022-07-30T06:54:38.545Z,153.15
2022-07-30T06:57:25.708Z,150.85
2022-07-30T07:00:13.119Z,146.50
2022-07-30T07:03:00.179Z,147.30
2022-07-30T07:05:47.347Z,152.63
2022-07-30T07:08:38.920Z,158.82
2022-07-30T07:11:26.064Z,160.77
2022-07-30T07:14:13.087Z,165.45
2022-07-30T07:17:00.339Z,168.60
2022-07-30T07:20:01.632Z,167.35
2022-07-30T07:22:49.606Z,171.45
2022-07-30T07:25:36.841Z,170.63
2022-07-30T07:28:33.312Z,175.00
2022-07-30T07:32:05.618Z,167.88
2022-07-30T07:34:28.128Z,167.43
2022-07-30T07:37:16.093Z,167.85
2022-07-30T07:40:04.178Z,178.88
2022-07-30T07:42:51.264Z,174.23
2022-07-30T07:45:39.298Z,173.30
2022-07-30T07:48:26.371Z,169.57
2022-07-30T07:51:13.347Z,172.88
2022-07-30T07:54:20.492Z,182.13
2022-07-30T07:57:10.380Z,184.85
2022-07-30T07:59:58.846Z,181.40
2022-07-30T08:02:46.772Z,179.65
2022-07-30T08:05:58.192Z,182.73
2022-07-30T08:08:41.239Z,181.43
2022-07-30T08:11:28.927Z,184.75
2022-07-30T08:14:15.941Z,183.48
2022-07-30T08:17:03.210Z,184.55
2022-07-30T08:19:51.047Z,178.40
2022-07-30T08:22:38.097Z,177.38
2022-07-30T08:25:25.542Z,180.90
2022-07-30T08:28:35.215Z,187.27
2022-07-30T08:31:19.742Z,184.90
2022-07-30T08:34:06.969Z,179.80
2022-07-30T08:36:54.068Z,185.30
2022-07-30T08:39:41.355Z,180.88
2022-07-30T08:42:29.290Z,185.30
2022-07-30T08:45:17.566Z,177.95
2022-07-30T08:48:13.675Z,182.13
2022-07-30T08:51:03.672Z,180.75
2022-07-30T08:53:51.318Z,185.77
2022-07-30T08:56:38.586Z,183.23
2022-07-30T08:59:59.410Z,191.25
2022-07-30T09:02:34.866Z,187.35
2022-07-30T09:05:22.014Z,173.85
2022-07-30T09:08:09.143Z,174.02
2022-07-30T09:10:56.410Z,183.63
2022-07-30T09:13:44.870Z,178.85
2022-07-30T09:16:32.128Z,166.10
2022-07-30T09:19:21.833Z,179.05
2022-07-30T09:22:08.795Z,179.57
2022-07-30T09:24:55.773Z,169.48
2022-07-30T09:27:50.289Z,176.27
2022-07-30T09:33:36.570Z,198.60
2022-07-30T09:36:23.831Z,190.90
2022-07-30T09:39:11.142Z,174.52
2022-07-30T09:41:58.770Z,182.05
2022-07-30T09:44:46.946Z,181.45
2022-07-30T09:47:38.982Z,196.88
2022-07-30T09:50:30.468Z,196.98
2022-07-30T09:53:18.186Z,205.05
2022-07-30T09:56:31.572Z,199.23
2022-07-30T09:59:34.973Z,203.50
2022-07-30T10:02:31.960Z,198.03
2022-07-30T10:05:20.693Z,204.70
2022-07-30T10:08:16.730Z,200.05
2022-07-30T10:11:09.570Z,203.23
2022-07-30T10:13:59.304Z,208.70
2022-07-30T10:16:47.568Z,202.85
2022-07-30T10:19:40.034Z,205.88
2022-07-30T10:22:29.404Z,206.02
2022-07-30T10:25:23.080Z,208.35
2022-07-30T10:28:16.517Z,212.45
2022-07-30T10:31:08.290Z,221.20
2022-07-30T10:34:13.850Z,223.63
2022-07-30T10:37:04.734Z,221.93
2022-07-30T10:39:59.214Z,216.07
2022-07-30T10:42:54.833Z,204.98
2022-07-30T10:45:58.393Z,188.35
2022-07-30T10:48:48.220Z,178.48
2022-07-30T10:51:43.834Z,172.48
2022-07-30T10:54:33.652Z,191.15
2022-07-30T10:57:32.096Z,198.18
2022-07-30T11:00:20.051Z,195.15
2022-07-30T11:03:14.838Z,210.90
2022-07-30T11:06:24.585Z,213.32
2022-07-30T11:09:41.086Z,215.45
2022-07-30T11:12:47.405Z,211.27
2022-07-30T11:15:59.921Z,205.25
2022-07-30T11:19:56.542Z,207.88
2022-07-30T11:22:41.362Z,188.85
2022-07-30T11:25:50.051Z,183.02
2022-07-30T11:28:37.782Z,194.80
2022-07-30T11:31:36.983Z,193.30
2022-07-30T11:34:33.449Z,197.60
2022-07-30T11:37:22.179Z,212.95
2022-07-30T11:40:26.177Z,218.32
2022-07-30T11:43:36.295Z,211.00
2022-07-30T11:46:29.272Z,211.75
2022-07-30T11:49:17.044Z,201.77
2022-07-30T11:52:04.563Z,197.63
2022-07-30T11:54:55.715Z,207.32
2022-07-30T11:57:42.949Z,210.35
2022-07-30T12:00:39.040Z,200.85
2022-07-30T12:03:31.849Z,191.43
2022-07-30T12:06:19.979Z,190.95
2022-07-30T12:09:07.088Z,181.98
2022-07-30T12:11:57.781Z,185.18
2022-07-30T12:14:44.879Z,188.15
2022-07-30T12:17:44.986Z,214.60
2022-07-30T12:20:32.034Z,208.48
2022-07-30T12:23:21.867Z,197.95
2022-07-30T12:26:20.508Z,186.43
2022-07-30T12:29:11.716Z,194.23
2022-07-30T12:31:58.938Z,206.63
2022-07-30T12:34:55.981Z,210.70
2022-07-30T12:38:02.556Z,215.93
2022-07-30T12:40:58.534Z,196.15
2022-07-30T12:43:49.782Z,188.70
2022-07-30T12:46:41.628Z,196.40
2022-07-30T12:49:39.406Z,193.45
2022-07-30T12:52:35.968Z,209.27
2022-07-30T12:55:34.369Z,213.77
2022-07-30T12:58:21.353Z,207.57
2022-07-30T13:01:09.973Z,207.13
2022-07-30T13:04:05.523Z,214.50
2022-07-30T13:07:04.841Z,222.18
2022-07-30T13:10:10.201Z,214.02
2022-07-30T13:12:58.296Z,205.15
2022-07-30T13:15:56.358Z,211.13
2022-07-30T13:18:43.643Z,213.52
2022-07-30T13:21:30.751Z,217.85
2022-07-30T13:24:18.726Z,217.77
2022-07-30T13:27:06.063Z,218.88
2022-07-30T13:29:53.396Z,230.27
2022-07-30T13:32:40.455Z,222.20
2022-07-30T13:35:27.893Z,226.10
2022-07-30T13:38:15.709Z,233.57
2022-07-30T13:41:04.481Z,230.50
2022-07-30T13:43:51.489Z,231.40
2022-07-30T13:46:41.198Z,232.90
2022-07-30T13:49:28.573Z,230.23
2022-07-30T13:52:17.213Z,226.30
2022-07-30T13:55:04.467Z,219.35
2022-07-30T13:57:51.403Z,209.70
2022-07-30T14:00:38.984Z,200.35
2022-07-30T14:03:25.902Z,205.57
2022-07-30T14:06:12.971Z,211.73
2022-07-30T14:08:59.905Z,220.73
2022-07-30T14:11:46.917Z,211.38
2022-07-30T14:14:33.877Z,215.15
2022-07-30T14:17:20.808Z,225.35
2022-07-30T14:20:08.307Z,234.32
2022-07-30T14:22:55.420Z,231.95
2022-07-30T14:25:44.210Z,230.23
2022-07-30T14:28:31.176Z,231.88
2022-07-30T14:31:18.307Z,234.00
2022-07-30T14:34:05.489Z,228.73
2022-07-30T14:36:52.885Z,224.40
2022-07-30T14:39:40.032Z,213.65
2022-07-30T14:42:27.553Z,199.55
2022-07-30T14:45:14.674Z,193.98
2022-07-30T14:48:01.852Z,207.10
2022-07-30T14:51:12.360Z,217.25
2022-07-30T14:53:57.076Z,212.85
2022-07-30T14:56:44.150Z,215.27
2022-07-30T14:59:31.174Z,217.57
2022-07-30T15:02:18.273Z,214.45
2022-07-30T15:05:05.776Z,215.20
2022-07-30T15:07:52.718Z,213.10
2022-07-30T15:10:40.188Z,210.85
2022-07-30T15:13:29.302Z,211.30
2022-07-30T15:16:19.298Z,209.38
2022-07-30T15:19:06.221Z,207.05
2022-07-30T15:21:53.155Z,201.40
2022-07-30T15:24:40.201Z,198.50
2022-07-30T15:27:33.705Z,199.18
2022-07-30T15:30:21.607Z,196.98
2022-07-30T15:33:08.940Z,199.38
2022-07-30T15:35:56.184Z,197.07
2022-07-30T15:38:43.647Z,200.43
2022-07-30T15:41:33.882Z,204.60
2022-07-30T15:44:21.087Z,198.13
2022-07-30T15:47:11.511Z,196.85
2022-07-30T15:50:00.232Z,200.18
2022-07-30T15:52:47.389Z,202.60
2022-07-30T15:55:47.186Z,202.05
2022-07-30T15:58:36.156Z,197.95
2022-07-30T16:01:24.598Z,200.70
2022-07-30T16:04:19.400Z,193.57
2022-07-30T16:07:08.044Z,196.02
2022-07-30T16:09:55.080Z,195.68
2022-07-30T16:12:42.388Z,191.98
2022-07-30T16:15:29.649Z,188.85
2022-07-30T16:18:16.800Z,191.68
2022-07-30T16:21:04.001Z,192.23
2022-07-30T16:23:52.612Z,189.98
2022-07-30T16:26:39.780Z,194.85
2022-07-30T16:29:27.099Z,189.95
2022-07-30T16:32:14.480Z,189.43
2022-07-30T16:35:01.776Z,191.80
2022-07-30T16:37:48.869Z,193.63
2022-07-30T16:40:36.407Z,191.13
2022-07-30T16:43:23.438Z,188.18
2022-07-30T16:46:11.133Z,188.55
2022-07-30T16:48:58.355Z,195.45
2022-07-30T16:51:45.467Z,190.65
2022-07-30T16:54:32.768Z,186.48
2022-07-30T16:57:19.790Z,191.88
2022-07-30T17:00:08.602Z,185.18
2022-07-30T17:02:55.565Z,187.23
2022-07-30T17:05:45.277Z,186.82
2022-07-30T17:08:33.071Z,183.40
2022-07-30T17:11:46.168Z,181.15
2022-07-30T17:14:27.971Z,180.77
2022-07-30T17:17:14.930Z,178.77
2022-07-30T17:20:04.010Z,177.00
2022-07-30T17:22:51.034Z,179.90
2022-07-30T17:25:38.130Z,177.30
2022-07-30T17:28:26.810Z,174.93
2022-07-30T17:31:14.237Z,177.52
2022-07-30T17:34:01.159Z,179.02
2022-07-30T17:36:51.758Z,221.63
2022-07-30T17:40:27.526Z,197.73
2022-07-30T17:42:46.720Z,176.98
2022-07-30T17:45:35.676Z,169.45
2022-07-30T17:48:22.734Z,170.13
2022-07-30T17:51:10.141Z,170.93
2022-07-30T17:53:57.153Z,167.45
2022-07-30T17:56:44.868Z,168.60
2022-07-30T17:59:32.336Z,165.77
2022-07-30T18:02:20.095Z,166.43
2022-07-30T18:05:15.712Z,162.85
2022-07-30T18:08:02.719Z,163.60
2022-07-30T18:10:50.591Z,164.63
2022-07-30T18:13:37.634Z,165.43
2022-07-30T18:16:25.344Z,166.80
2022-07-30T18:19:22.807Z,172.98
2022-07-30T18:22:14.695Z,296.70
2022-07-30T18:25:02.299Z,179.55
2022-07-30T18:27:56.086Z,351.70
2022-07-30T18:30:43.179Z,227.50
2022-07-30T18:33:30.267Z,163.15
2022-07-30T18:36:17.321Z,175.00
2022-07-30T18:39:04.624Z,166.90
2022-07-30T18:41:51.681Z,157.45
2022-07-30T18:44:38.693Z,158.43
2022-07-30T18:47:25.951Z,156.10
2022-07-30T18:50:15.929Z,153.02
2022-07-30T18:53:15.364Z,153.63
2022-07-30T18:56:03.372Z,155.23
2022-07-30T18:58:50.992Z,158.18
2022-07-30T19:01:39.286Z,150.07
2022-07-30T19:04:26.879Z,148.07
2022-07-30T19:07:14.085Z,147.02
2022-07-30T19:10:01.584Z,143.95
2022-07-30T19:12:48.563Z,142.90
2022-07-30T19:15:36.177Z,149.25
2022-07-30T19:18:23.293Z,151.05
2022-07-30T19:21:14.070Z,148.00
2022-07-30T19:24:01.914Z,148.45
2022-07-30T19:26:49.306Z,143.98
2022-07-30T19:29:37.366Z,146.88
2022-07-30T19:32:26.221Z,144.68
2022-07-30T19:35:13.458Z,139.73
2022-07-30T19:38:01.787Z,144.57
2022-07-30T19:40:50.026Z,142.98
2022-07-30T19:43:37.745Z,143.25
2022-07-30T19:46:26.320Z,143.93
2022-07-30T19:49:13.428Z,140.52
2022-07-30T19:52:10.690Z,141.57
2022-07-30T19:55:30.509Z,138.77
2022-07-30T19:58:17.866Z,139.32
2022-07-30T20:01:08.515Z,139.57
2022-07-30T20:03:55.846Z,141.57
2022-07-30T20:06:49.187Z,139.60
2022-07-30T20:09:36.376Z,139.52
2022-07-30T20:12:24.492Z,140.43
2022-07-30T20:15:14.901Z,141.82
2022-07-30T20:18:01.983Z,139.25
2022-07-30T20:20:50.442Z,139.70
2022-07-30T20:23:38.106Z,139.82
2022-07-30T20:26:29.100Z,140.43
2022-07-30T20:29:19.264Z,142.30
2022-07-30T20:32:08.461Z,137.88
2022-07-30T20:34:55.631Z,135.73
2022-07-30T20:37:54.999Z,133.77
2022-07-30T20:40:46.745Z,135.00
2022-07-30T20:43:33.723Z,133.57
2022-07-30T20:46:35.107Z,132.02
2022-07-30T20:49:33.924Z,134.05
2022-07-30T20:52:22.320Z,135.77
2022-07-30T20:55:12.171Z,135.55
2022-07-30T20:58:13.786Z,133.20
2022-07-30T21:01:04.901Z,129.55
2022-07-30T21:03:51.913Z,130.75
2022-07-30T21:06:44.367Z,127.53
2022-07-30T21:09:52.286Z,128.25
2022-07-30T21:12:39.907Z,131.13
2022-07-30T21:15:26.974Z,125.53
2022-07-30T21:18:19.495Z,127.78
2022-07-30T21:21:07.887Z,128.77
2022-07-30T21:23:59.144Z,127.22
2022-07-30T21:26:49.045Z,124.47
2022-07-30T21:29:36.085Z,125.18
2022-07-30T21:32:25.604Z,122.30
2022-07-30T21:35:12.940Z,122.50
2022-07-30T21:38:02.396Z,125.28
2022-07-30T21:40:49.991Z,121.63
2022-07-30T21:43:37.002Z,125.30
2022-07-30T21:46:26.970Z,122.88
2022-07-30T21:49:13.968Z,123.75
2022-07-30T21:52:01.786Z,123.43
2022-07-30T21:54:50.499Z,121.20
2022-07-30T21:57:37.594Z,120.78
2022-07-30T22:01:00.970Z,120.47
2022-07-30T22:04:08.268Z,119.68
2022-07-30T22:06:56.151Z,120.97
2022-07-30T22:09:47.628Z,115.45
2022-07-30T22:12:34.621Z,118.43
2022-07-30T22:15:21.886Z,121.35
2022-07-30T22:18:12.627Z,117.78
2022-07-30T22:20:59.672Z,117.13
2022-07-30T22:23:56.707Z,119.47
2022-07-30T22:26:51.004Z,116.07
2022-07-30T22:29:38.761Z,118.10
2022-07-30T22:32:25.803Z,117.20
2022-07-30T22:38:22.935Z,116.05
2022-07-30T22:41:14.170Z,116.90
2022-07-30T22:44:01.281Z,114.35
2022-07-30T22:46:48.226Z,115.05
2022-07-30T22:49:45.684Z,114.50
2022-07-30T22:52:52.446Z,116.43
2022-07-30T22:55:45.972Z,114.78
2022-07-30T22:58:32.921Z,117.30
2022-07-30T23:01:19.872Z,113.80
2022-07-30T23:04:09.952Z,112.30
2022-07-30T23:06:57.034Z,111.75
2022-07-30T23:09:51.532Z,112.80
2022-07-30T23:12:32.860Z,119.40
2022-07-30T23:12:39.197Z,106.72
2022-07-30T23:15:26.461Z,108.57
2022-07-30T23:18:15.897Z,107.75
2022-07-30T23:21:03.205Z,105.93
2022-07-30T23:23:50.321Z,108.43
2022-07-30T23:26:37.280Z,108.97
2022-07-30T23:29:24.448Z,110.78
2022-07-30T23:32:11.478Z,112.45
2022-07-30T23:34:58.738Z,107.43
2022-07-30T23:37:48.010Z,107.22
2022-07-30T23:40:35.937Z,106.85
2022-07-30T23:43:22.851Z,108.22
2022-07-30T23:46:11.189Z,109.03
2022-07-30T23:48:58.669Z,109.13
2022-07-30T23:51:45.635Z,107.78
2022-07-30T23:54:32.628Z,108.03
2022-07-30T23:57:19.606Z,104.40
